Time;durP1;ratioP1;P1;durP2;ratioP2;P2;SDS_P1;SDS_P2;PMS_P1;PMS_P2;Temp;Humidity;BMP_temperature;BMP_pressure;BME280_temperature;BME280_humidity;BME280_pressure;Samples;Min_cycle;Max_cycle;Signal;HPM_P1;HPM_P2
2022/05/31 00:02:02;;;;;;;8.23;5.60;;;12.00;1.00;;;;;;4996619;28;20172;-68
2022/05/31 00:04:28;;;;;;;8.90;5.10;;;12.00;1.00;;;;;;4996636;28;20277;-69
2022/05/31 00:06:54;;;;;;;12.23;5.70;;;12.00;1.00;;;;;;4996473;28;20686;-69
2022/05/31 00:09:20;;;;;;;6.90;5.37;;;12.00;1.00;;;;;;4996511;28;20259;-69
2022/05/31 00:11:47;;;;;;;6.00;5.03;;;12.10;1.00;;;;;;4996800;28;20290;-68
2022/05/31 00:14:14;;;;;;;8.67;6.13;;;12.00;1.00;;;;;;4996693;28;20695;-69
2022/05/31 00:16:41;;;;;;;13.27;5.97;;;12.00;1.00;;;;;;4996512;28;20262;-68
2022/05/31 00:19:07;;;;;;;8.47;5.67;;;12.00;1.00;;;;;;4996481;28;20266;-69
2022/05/31 00:21:44;;;;;;;10.07;5.60;;;12.00;1.00;;;;;;4995665;28;20230;-68
2022/05/31 00:24:13;;;;;;;8.07;5.43;;;12.00;1.00;;;;;;4996562;28;20676;-68
2022/05/31 00:26:40;;;;;;;8.27;6.03;;;11.90;1.00;;;;;;4995020;28;20183;-68
2022/05/31 00:29:07;;;;;;;11.30;5.73;;;11.90;1.00;;;;;;4996351;28;20180;-67
2022/05/31 00:31:33;;;;;;;13.63;5.73;;;11.90;1.00;;;;;;4996374;28;20234;-67
2022/05/31 00:33:59;;;;;;;5.90;5.30;;;11.90;1.00;;;;;;4996079;28;20172;-68
2022/05/31 00:36:25;;;;;;;7.77;5.80;;;11.90;1.00;;;;;;4995893;28;20685;-68
2022/05/31 00:38:50;;;;;;;8.07;5.93;;;11.90;1.00;;;;;;4996032;28;20175;-68
2022/05/31 00:41:24;;;;;;;7.67;6.00;;;11.90;1.00;;;;;;4996132;28;20171;-68
2022/05/31 00:43:59;;;;;;;8.23;6.50;;;11.90;1.00;;;;;;4996125;28;20191;-66
2022/05/31 00:46:31;;;;;;;10.70;7.40;;;12.00;1.00;;;;;;4996159;28;20649;-68
2022/05/31 00:49:01;;;;;;;10.93;8.30;;;11.90;1.00;;;;;;4996331;28;20673;-67
2022/05/31 00:51:40;;;;;;;11.37;8.50;;;11.90;1.00;;;;;;4995559;28;20183;-67
2022/05/31 00:54:13;;;;;;;13.93;9.10;;;11.90;1.00;;;;;;4995946;28;20175;-67
2022/05/31 00:56:40;;;;;;;10.90;8.60;;;11.90;1.00;;;;;;4996055;28;20175;-67
2022/05/31 00:59:09;;;;;;;10.07;7.03;;;11.90;1.00;;;;;;4995766;28;20189;-69
2022/05/31 01:01:39;;;;;;;8.03;7.03;;;11.90;1.00;;;;;;4995782;28;20175;-67
2022/05/31 01:04:05;;;;;;;8.00;7.20;;;11.90;1.00;;;;;;4995567;28;20287;-68
2022/05/31 01:06:33;;;;;;;11.20;6.20;;;11.90;1.00;;;;;;4994227;28;20231;-67
2022/05/31 01:09:00;;;;;;;9.27;7.07;;;11.90;1.00;;;;;;4995710;28;20257;-67
2022/05/31 01:11:29;;;;;;;8.20;6.37;;;11.90;1.00;;;;;;4995356;28;20202;-67
2022/05/31 01:13:55;;;;;;;13.20;6.90;;;11.90;1.00;;;;;;4995684;28;20170;-67
2022/05/31 01:16:21;;;;;;;9.47;6.70;;;11.90;1.00;;;;;;4995369;28;20171;-67
2022/05/31 01:18:47;;;;;;;10.97;7.23;;;11.80;1.00;;;;;;4995307;28;20195;-68
2022/05/31 01:21:13;;;;;;;14.73;7.13;;;11.80;1.00;;;;;;4994712;28;20230;-67
2022/05/31 01:24:07;;;;;;;12.63;6.83;;;11.80;1.00;;;;;;4995123;28;20567;-67
2022/05/31 01:26:50;;;;;;;9.23;6.93;;;11.80;1.00;;;;;;4995372;28;20175;-67
2022/05/31 01:29:24;;;;;;;12.90;7.27;;;12.00;1.00;;;;;;4995048;28;20168;-69
2022/05/31 01:32:05;;;;;;;11.53;7.10;;;12.00;1.00;;;;;;4995331;28;20167;-68
2022/05/31 01:34:45;;;;;;;8.20;7.30;;;12.10;1.00;;;;;;4995000;28;20175;-68
2022/05/31 01:37:11;;;;;;;9.30;6.90;;;12.20;1.00;;;;;;4994914;28;20179;-67
2022/05/31 01:39:46;;;;;;;9.27;6.97;;;12.20;1.00;;;;;;4995035;28;20168;-67
2022/05/31 01:42:16;;;;;;;8.70;6.63;;;12.10;1.00;;;;;;4994970;28;20183;-68
2022/05/31 01:44:48;;;;;;;10.23;6.33;;;12.00;1.00;;;;;;4995148;28;20294;-68
2022/05/31 01:47:15;;;;;;;8.80;6.60;;;12.00;1.00;;;;;;4994929;28;20171;-68
2022/05/31 01:49:44;;;;;;;8.10;6.50;;;11.90;1.00;;;;;;4994437;28;20263;-68
2022/05/31 01:52:11;;;;;;;13.00;7.20;;;11.90;1.00;;;;;;4994541;28;20186;-68
2022/05/31 01:54:39;;;;;;;8.43;7.10;;;11.90;1.00;;;;;;4994718;28;20175;-68
2022/05/31 01:57:07;;;;;;;9.53;6.97;;;11.90;1.00;;;;;;4994698;28;20175;-68
2022/05/31 01:59:37;;;;;;;7.47;6.73;;;11.90;1.00;;;;;;4994691;28;20213;-68
2022/05/31 02:02:04;;;;;;;8.10;6.87;;;11.90;1.00;;;;;;4994075;28;20163;-68
2022/05/31 02:04:30;;;;;;;7.73;6.33;;;11.90;1.00;;;;;;4994290;28;20199;-68
2022/05/31 02:07:10;;;;;;;10.00;6.80;;;11.80;1.00;;;;;;4994417;28;20255;-67
2022/05/31 02:09:37;;;;;;;8.73;7.50;;;11.70;1.00;;;;;;4994485;28;20171;-68
2022/05/31 02:12:05;;;;;;;10.07;6.80;;;11.70;1.00;;;;;;4994477;28;20554;-69
2022/05/31 02:14:30;;;;;;;10.70;7.37;;;11.70;1.00;;;;;;4994168;28;20664;-68
2022/05/31 02:16:56;;;;;;;9.13;6.70;;;11.70;1.00;;;;;;4994437;28;20175;-67
2022/05/31 02:19:28;;;;;;;9.33;7.20;;;11.80;1.00;;;;;;4993770;28;20297;-68
2022/05/31 02:21:56;;;;;;;10.90;7.43;;;11.90;1.00;;;;;;4994263;28;20192;-69
2022/05/31 02:24:24;;;;;;;11.57;7.60;;;12.00;1.00;;;;;;4994138;28;20277;-67
2022/05/31 02:26:50;;;;;;;8.57;6.77;;;12.00;1.00;;;;;;4992679;28;20175;-69
2022/05/31 02:29:18;;;;;;;8.90;7.03;;;12.10;1.00;;;;;;4994189;28;20175;-67
2022/05/31 02:31:45;;;;;;;16.40;8.10;;;12.20;1.00;;;;;;4993571;28;20176;-68
2022/05/31 02:34:12;;;;;;;8.30;7.40;;;12.20;1.00;;;;;;4993929;28;20206;-68
2022/05/31 02:36:38;;;;;;;8.80;7.27;;;12.20;1.00;;;;;;4994169;28;20174;-68
2022/05/31 02:39:04;;;;;;;9.03;7.37;;;12.30;1.00;;;;;;4994158;28;20183;-68
2022/05/31 02:41:31;;;;;;;8.83;6.93;;;12.30;1.00;;;;;;4994285;28;20187;-68
2022/05/31 02:43:57;;;;;;;11.33;7.97;;;12.30;1.00;;;;;;4994052;28;20192;-68
2022/05/31 02:46:23;;;;;;;10.50;6.93;;;12.30;1.00;;;;;;4993819;28;20175;-68
2022/05/31 02:48:49;;;;;;;13.03;7.43;;;12.20;1.00;;;;;;4993863;28;20171;-68
2022/05/31 02:51:15;;;;;;;9.87;6.80;;;12.10;1.00;;;;;;4993827;28;20183;-68
2022/05/31 02:53:41;;;;;;;8.87;7.37;;;11.90;1.00;;;;;;4994150;28;20535;-68
2022/05/31 02:56:07;;;;;;;9.97;6.77;;;11.90;1.00;;;;;;4993974;28;20175;-68
2022/05/31 02:58:34;;;;;;;7.60;6.80;;;11.90;1.00;;;;;;4992568;28;20182;-68
2022/05/31 03:01:00;;;;;;;9.03;6.83;;;12.10;1.00;;;;;;4993630;28;20258;-68
2022/05/31 03:03:26;;;;;;;14.23;7.00;;;12.20;1.00;;;;;;4993728;28;20282;-68
2022/05/31 03:05:52;;;;;;;8.40;7.53;;;12.10;1.00;;;;;;4993706;28;20211;-68
2022/05/31 03:08:19;;;;;;;8.23;7.20;;;12.00;1.00;;;;;;4993652;28;20181;-67
2022/05/31 03:10:54;;;;;;;8.57;6.30;;;11.90;1.00;;;;;;4993821;28;20226;-67
2022/05/31 03:13:24;;;;;;;9.40;6.70;;;11.80;1.00;;;;;;4995039;28;20182;-67
2022/05/31 03:15:53;;;;;;;10.57;6.80;;;11.90;1.00;;;;;;4997349;28;20175;-67
2022/05/31 03:18:25;;;;;;;8.27;7.00;;;11.80;1.00;;;;;;4997624;28;20669;-68
2022/05/31 03:20:54;;;;;;;12.13;7.27;;;11.80;1.00;;;;;;4997443;28;20223;-67
2022/05/31 03:23:30;;;;;;;8.43;6.40;;;11.80;1.00;;;;;;4997481;28;20583;-68
2022/05/31 03:26:00;;;;;;;7.10;6.40;;;11.80;1.00;;;;;;4997442;28;20214;-68
2022/05/31 03:28:27;;;;;;;10.17;6.33;;;11.70;1.00;;;;;;4996054;28;20179;-68
2022/05/31 03:30:53;;;;;;;7.03;6.33;;;11.80;1.00;;;;;;4995787;28;20289;-68
2022/05/31 03:33:19;;;;;;;6.93;5.97;;;11.80;1.00;;;;;;4996232;28;20246;-68
2022/05/31 03:35:45;;;;;;;8.33;6.10;;;11.90;1.00;;;;;;4997576;28;20614;-68
2022/05/31 03:38:10;;;;;;;8.03;5.93;;;11.80;1.00;;;;;;4997339;28;20167;-68
2022/05/31 03:43:20;;;;;;;8.03;6.37;;;11.90;1.00;;;;;;4997664;28;20522;-67
2022/05/31 03:45:46;;;;;;;10.20;6.97;;;11.90;1.00;;;;;;4996609;28;20207;-67
2022/05/31 03:48:12;;;;;;;7.30;6.60;;;12.00;1.00;;;;;;4997128;28;20171;-68
2022/05/31 03:50:38;;;;;;;7.90;6.47;;;12.00;1.00;;;;;;4997379;28;20183;-67
2022/05/31 03:53:09;;;;;;;10.63;6.30;;;12.00;1.00;;;;;;4996611;28;20171;-68
2022/05/31 03:55:39;;;;;;;8.30;6.70;;;11.90;1.00;;;;;;4997235;28;20182;-68
2022/05/31 03:58:06;;;;;;;8.73;6.83;;;11.70;1.00;;;;;;4996848;28;20194;-68
2022/05/31 04:00:32;;;;;;;12.97;6.97;;;11.80;1.00;;;;;;4996325;28;20565;-67
2022/05/31 04:02:58;;;;;;;9.80;6.40;;;11.90;1.00;;;;;;4996849;28;20175;-68
2022/05/31 04:05:24;;;;;;;7.57;6.33;;;12.10;1.00;;;;;;4996561;28;20225;-68
2022/05/31 04:07:54;;;;;;;12.23;6.50;;;12.20;1.00;;;;;;4996655;28;20203;-68
2022/05/31 04:10:20;;;;;;;10.73;6.60;;;12.30;1.00;;;;;;4996750;28;20301;-68
2022/05/31 04:12:47;;;;;;;8.93;6.60;;;12.40;1.00;;;;;;4996832;28;20168;-68
2022/05/31 04:15:13;;;;;;;11.00;6.87;;;12.50;1.00;;;;;;4996211;28;20234;-68
2022/05/31 04:17:39;;;;;;;11.63;6.80;;;12.60;1.00;;;;;;4996280;28;20229;-68
2022/05/31 04:20:05;;;;;;;14.43;6.37;;;12.70;1.00;;;;;;4995116;28;20227;-67
2022/05/31 04:22:32;;;;;;;9.00;6.77;;;12.80;1.00;;;;;;4996568;28;20222;-68
2022/05/31 04:25:01;;;;;;;10.73;6.50;;;12.70;1.00;;;;;;4995701;28;20246;-68
2022/05/31 04:27:27;;;;;;;8.43;6.43;;;12.70;1.00;;;;;;4996194;28;20210;-68
2022/05/31 04:29:53;;;;;;;12.83;7.17;;;12.70;1.00;;;;;;4995877;28;20194;-68
2022/05/31 04:32:20;;;;;;;8.63;6.90;;;12.70;1.00;;;;;;4996116;28;20630;-68
2022/05/31 04:34:46;;;;;;;9.83;6.73;;;12.70;1.00;;;;;;4995959;28;20322;-68
2022/05/31 04:37:12;;;;;;;10.77;6.83;;;12.40;1.00;;;;;;4996134;28;20175;-68
2022/05/31 04:39:38;;;;;;;12.30;6.83;;;12.30;1.00;;;;;;4995737;28;20222;-67
2022/05/31 04:42:04;;;;;;;18.33;7.47;;;12.20;1.00;;;;;;4995808;28;20223;-67
2022/05/31 04:44:29;;;;;;;15.17;7.17;;;12.20;1.00;;;;;;4994510;28;20369;-68
2022/05/31 04:46:55;;;;;;;16.10;7.50;;;12.40;1.00;;;;;;4996108;28;20670;-68
2022/05/31 04:49:21;;;;;;;12.50;6.70;;;12.60;1.00;;;;;;4994231;28;20179;-68
2022/05/31 04:51:47;;;;;;;12.07;7.07;;;12.70;1.00;;;;;;4995575;28;20548;-67
2022/05/31 04:54:12;;;;;;;11.20;6.63;;;12.70;1.00;;;;;;4995606;28;20538;-68
2022/05/31 04:56:38;;;;;;;11.57;6.77;;;12.80;1.00;;;;;;4995752;28;20179;-67
2022/05/31 04:59:04;;;;;;;11.60;6.93;;;12.90;1.00;;;;;;4994915;28;20211;-67
2022/05/31 05:01:30;;;;;;;9.73;7.33;;;12.80;1.00;;;;;;4995307;28;20179;-68
2022/05/31 05:03:56;;;;;;;10.53;6.63;;;12.90;1.00;;;;;;4995595;28;20650;-68
2022/05/31 05:06:22;;;;;;;12.07;6.90;;;12.90;1.00;;;;;;4995339;28;20184;-68
2022/05/31 05:08:48;;;;;;;10.17;6.70;;;12.60;1.00;;;;;;4995352;28;20316;-68
2022/05/31 05:11:17;;;;;;;12.77;6.63;;;12.50;1.00;;;;;;4994768;28;20579;-68
2022/05/31 05:13:43;;;;;;;15.20;7.23;;;12.60;1.00;;;;;;4993691;28;20631;-68
2022/05/31 05:16:10;;;;;;;10.40;7.33;;;12.70;1.00;;;;;;4994459;28;20194;-68
2022/05/31 05:18:36;;;;;;;17.90;8.10;;;12.90;1.00;;;;;;4994931;28;20217;-68
2022/05/31 05:21:04;;;;;;;15.33;10.90;;;13.00;1.00;;;;;;4994664;28;20231;-68
2022/05/31 05:23:30;;;;;;;21.33;13.07;;;12.90;1.00;;;;;;4995253;28;20175;-68
2022/05/31 05:25:56;;;;;;;20.37;12.13;;;12.80;1.00;;;;;;4994354;28;20222;-68
2022/05/31 05:31:30;;;;;;;21.67;11.87;;;12.80;1.00;;;;;;4986308;28;20195;-68
2022/05/31 05:33:57;;;;;;;25.13;12.40;;;13.10;1.00;;;;;;4994509;28;20194;-69
2022/05/31 05:36:24;;;;;;;23.57;12.43;;;13.20;1.00;;;;;;4993853;28;20211;-68
2022/05/31 05:38:49;;;;;;;27.20;12.60;;;13.40;1.00;;;;;;4993474;28;20273;-68
2022/05/31 05:41:16;;;;;;;20.47;11.57;;;13.50;1.00;;;;;;4994531;28;20638;-68
2022/05/31 05:43:42;;;;;;;16.37;9.57;;;13.70;1.00;;;;;;4994600;28;20179;-68
2022/05/31 05:46:15;;;;;;;15.97;9.50;;;13.70;1.00;;;;;;4994853;28;20182;-68
2022/05/31 05:48:42;;;;;;;19.57;8.07;;;13.70;1.00;;;;;;4994311;28;20197;-69
2022/05/31 05:51:17;;;;;;;12.73;8.37;;;13.80;1.00;;;;;;4994578;28;20517;-68
2022/05/31 05:53:43;;;;;;;12.57;7.90;;;13.90;1.00;;;;;;4994056;28;20645;-68
2022/05/31 05:56:09;;;;;;;14.50;7.50;;;14.00;1.00;;;;;;4993637;28;20242;-68
2022/05/31 05:58:35;;;;;;;13.00;6.80;;;14.10;1.00;;;;;;4993952;28;20171;-68
2022/05/31 06:01:03;;;;;;;12.83;7.47;;;14.40;1.00;;;;;;4993280;28;20179;-68
2022/05/31 06:03:37;;;;;;;10.90;7.10;;;14.60;1.00;;;;;;4994125;28;20225;-70
2022/05/31 06:06:03;;;;;;;13.33;7.20;;;14.60;1.00;;;;;;4994634;28;20222;-68
2022/05/31 06:08:34;;;;;;;10.60;7.13;;;14.80;1.00;;;;;;4993215;28;20514;-68
2022/05/31 06:11:24;;;;;;;15.70;7.70;;;15.00;1.00;;;;;;4993347;28;20179;-67
2022/05/31 06:14:06;;;;;;;13.47;7.60;;;15.10;99.90;;;;;;4993994;28;20254;-68
2022/05/31 06:16:37;;;;;;;17.00;7.00;;;15.20;99.90;;;;;;4993634;28;20210;-69
2022/05/31 06:19:10;;;;;;;18.77;7.70;;;15.20;99.90;;;;;;4993869;28;20183;-69
2022/05/31 06:21:35;;;;;;;13.00;7.20;;;15.60;99.90;;;;;;4993468;28;20302;-69
2022/05/31 06:24:01;;;;;;;11.03;6.20;;;16.70;99.90;;;;;;4993641;28;20718;-69
2022/05/31 06:26:28;;;;;;;15.87;6.73;;;17.80;99.90;;;;;;4994084;28;20654;-70
2022/05/31 06:28:54;;;;;;;8.40;5.63;;;19.50;99.90;;;;;;4994060;28;20263;-69
2022/05/31 06:31:20;;;;;;;9.02;5.97;;;21.70;1.00;;;;;;4993103;28;20183;-70
2022/05/31 06:33:45;;;;;;;11.35;6.60;;;22.70;99.90;;;;;;4993562;28;20222;-68
2022/05/31 06:36:11;;;;;;;8.70;6.40;;;22.50;99.90;;;;;;4993649;28;20634;-69
2022/05/31 06:38:37;;;;;;;8.07;5.50;;;21.90;99.90;;;;;;4993598;28;20178;-69
2022/05/31 06:41:04;;;;;;;11.20;6.20;;;21.40;99.90;;;;;;4993725;28;20171;-69
2022/05/31 06:43:30;;;;;;;16.60;6.63;;;20.90;99.90;;;;;;4993944;28;20225;-70
2022/05/31 06:45:56;;;;;;;8.82;6.25;;;21.00;99.90;;;;;;4993096;28;20297;-69
2022/05/31 06:48:21;;;;;;;9.88;5.95;;;21.60;99.90;;;;;;4992142;28;20190;-70
2022/05/31 06:50:47;;;;;;;14.30;7.07;;;22.40;99.90;;;;;;4993068;28;20190;-70
2022/05/31 06:58:45;;;;;;;6.57;6.03;;;24.50;99.90;;;;;;4992472;28;20661;-71
2022/05/31 07:01:10;;;;;;;8.75;6.47;;;26.20;99.90;;;;;;4992993;28;20167;-72
2022/05/31 07:03:36;;;;;;;9.68;6.57;;;26.60;99.90;;;;;;4992656;28;20172;-73
2022/05/31 07:06:02;;;;;;;14.43;7.05;;;28.70;99.90;;;;;;4992962;28;20572;-73
2022/05/31 07:08:27;;;;;;;16.20;6.97;;;28.50;99.90;;;;;;4992911;28;20317;-73
2022/05/31 07:10:53;;;;;;;11.70;6.88;;;29.50;99.90;;;;;;4992751;28;20528;-72
2022/05/31 07:13:20;;;;;;;13.23;7.05;;;29.10;99.90;;;;;;4992781;28;20183;-71
2022/05/31 07:15:46;;;;;;;10.32;6.80;;;30.00;99.90;;;;;;4993117;28;20175;-72
2022/05/31 07:18:11;;;;;;;12.85;10.18;;;31.20;91.70;;;;;;4993321;28;20254;-73
2022/05/31 07:20:37;;;;;;;8.90;5.53;;;32.00;76.30;;;;;;4992957;28;20226;-72
2022/05/31 07:23:03;;;;;;;10.88;5.57;;;31.40;62.80;;;;;;4992536;28;20604;-73
2022/05/31 07:25:28;;;;;;;7.78;5.55;;;31.40;57.10;;;;;;4992472;28;20223;-75
2022/05/31 07:27:54;;;;;;;7.82;5.70;;;32.10;50.10;;;;;;4993012;28;20179;-75
2022/05/31 07:30:20;;;;;;;8.15;5.90;;;32.70;43.50;;;;;;4993383;28;20591;-75
2022/05/31 07:32:45;;;;;;;8.70;5.43;;;33.00;38.80;;;;;;4992151;28;20171;-75
2022/05/31 07:35:11;;;;;;;9.23;5.80;;;32.60;32.20;;;;;;4992972;28;20182;-75
2022/05/31 07:37:37;;;;;;;7.22;5.82;;;32.80;30.00;;;;;;4992936;28;20172;-75
2022/05/31 07:40:04;;;;;;;9.48;5.57;;;33.30;26.60;;;;;;4992985;28;20218;-75
2022/05/31 07:42:29;;;;;;;8.48;5.22;;;33.10;26.80;;;;;;4991896;28;20183;-76
2022/05/31 07:44:56;;;;;;;9.48;5.28;;;34.00;21.60;;;;;;4993188;28;20208;-76
2022/05/31 07:47:24;;;;;;;6.82;5.30;;;34.30;18.70;;;;;;4992518;28;20257;-77
2022/05/31 07:49:50;;;;;;;8.23;5.07;;;33.30;17.90;;;;;;4993156;28;20172;-75
2022/05/31 07:52:16;;;;;;;8.23;4.30;;;33.30;16.80;;;;;;4987181;28;20294;-77
2022/05/31 07:54:42;;;;;;;9.18;5.15;;;33.20;14.80;;;;;;4987538;28;20180;-76
2022/05/31 07:57:07;;;;;;;5.47;4.07;;;33.70;13.50;;;;;;4983888;28;20180;-77
2022/05/31 07:59:34;;;;;;;3.42;3.20;;;33.40;11.90;;;;;;4992410;28;20656;-76
2022/05/31 08:02:01;;;;;;;4.53;3.25;;;32.80;13.10;;;;;;4995948;28;20167;-77
2022/05/31 08:04:27;;;;;;;4.88;3.53;;;32.70;9.80;;;;;;4977332;28;20207;-78
2022/05/31 08:06:57;;;;;;;3.42;3.10;;;33.10;11.60;;;;;;4976679;28;20178;-75
2022/05/31 08:09:22;;;;;;;5.88;3.38;;;32.50;10.70;;;;;;4976814;28;20175;-75
2022/05/31 08:11:48;;;;;;;6.53;3.50;;;32.70;10.90;;;;;;4990283;28;20173;-76
2022/05/31 08:14:14;;;;;;;4.47;3.20;;;33.20;8.30;;;;;;4994873;28;20175;-76
2022/05/31 08:16:40;;;;;;;6.53;3.00;;;33.80;6.00;;;;;;4996325;28;20698;-76
2022/05/31 08:19:05;;;;;;;4.53;3.17;;;34.10;2.80;;;;;;4996203;28;20192;-76
2022/05/31 08:21:32;;;;;;;3.83;2.72;;;34.20;1.20;;;;;;4994619;28;20251;-76
2022/05/31 08:24:00;;;;;;;3.67;2.67;;;34.30;1.00;;;;;;4995668;28;20171;-77
2022/05/31 08:26:26;;;;;;;3.70;2.97;;;33.80;1.00;;;;;;4996047;28;20217;-77
2022/05/31 08:28:52;;;;;;;5.97;3.03;;;33.30;1.00;;;;;;4995488;28;20214;-76
2022/05/31 08:31:35;;;;;;;4.28;3.33;;;33.80;1.00;;;;;;4987561;28;20180;-73
2022/05/31 08:34:01;;;;;;;5.40;3.95;;;32.60;1.00;;;;;;4991778;28;20241;-77
2022/05/31 08:36:26;;;;;;;5.05;2.95;;;33.20;1.00;;;;;;4994907;28;20266;-77
2022/05/31 08:38:53;;;;;;;4.40;3.05;;;33.60;1.00;;;;;;4995544;28;20253;-76
2022/05/31 08:41:30;;;;;;;3.03;2.72;;;33.90;1.00;;;;;;4995053;28;20179;-77
2022/05/31 08:44:21;;;;;;;4.75;2.88;;;33.00;1.00;;;;;;4995342;28;20512;-75
2022/05/31 08:47:17;;;;;;;5.63;3.42;;;33.20;1.00;;;;;;4995063;28;20179;-75
2022/05/31 08:52:36;;;;;;;5.07;2.88;;;34.60;1.00;;;;;;4995649;28;20202;-74
2022/05/31 08:57:59;;;;;;;4.90;2.53;;;35.40;1.00;;;;;;4994329;28;20578;-78
2022/05/31 09:00:31;;;;;;;4.55;2.50;;;35.50;1.00;;;;;;4994612;28;20159;-75
2022/05/31 09:03:15;;;;;;;3.30;2.60;;;35.10;1.00;;;;;;4994334;28;20210;-72
2022/05/31 09:05:52;;;;;;;4.50;2.50;;;35.30;1.00;;;;;;4994934;28;20696;-76
2022/05/31 09:08:38;;;;;;;3.88;2.50;;;35.70;1.00;;;;;;4995040;28;20210;-75
2022/05/31 09:11:14;;;;;;;3.80;2.60;;;35.20;1.00;;;;;;4994644;28;20265;-76
2022/05/31 09:14:00;;;;;;;3.88;2.45;;;35.40;1.00;;;;;;4995090;28;20235;-76
2022/05/31 09:17:00;;;;;;;6.10;4.30;;;35.80;1.00;;;;;;4994320;28;20656;-75
2022/05/31 09:19:32;;;;;;;3.05;2.65;;;34.80;1.00;;;;;;4991546;28;20213;-73
2022/05/31 09:22:01;;;;;;;3.58;2.58;;;33.80;1.00;;;;;;4975169;28;20695;-73
2022/05/31 09:24:28;;;;;;;3.00;2.70;;;34.30;1.00;;;;;;4992135;28;20278;-71
2022/05/31 09:27:04;;;;;;;2.83;2.50;;;34.40;1.00;;;;;;4994299;28;20604;-72
2022/05/31 09:30:07;;;;;;;6.80;2.80;;;34.00;1.00;;;;;;4992506;28;20174;-72
2022/05/31 09:33:06;;;;;;;6.20;2.75;;;32.10;1.00;;;;;;4993345;28;20207;-72
2022/05/31 09:35:47;;;;;;;3.90;2.30;;;32.60;1.00;;;;;;4994268;28;20179;-76
2022/05/31 09:38:43;;;;;;;4.95;2.00;;;32.00;1.00;;;;;;4994543;28;20234;-73
2022/05/31 09:41:12;;;;;;;4.25;2.28;;;31.00;1.00;;;;;;4994445;28;20175;-70
2022/05/31 09:43:53;;;;;;;2.17;1.95;;;29.60;1.00;;;;;;4994432;28;20176;-75
2022/05/31 09:46:35;;;;;;;1.80;1.65;;;28.30;1.00;;;;;;4982968;28;20191;-73
2022/05/31 09:49:14;;;;;;;2.17;1.90;;;28.00;1.00;;;;;;4992462;28;20179;-75
2022/05/31 09:51:42;;;;;;;2.45;2.13;;;28.70;1.00;;;;;;4994115;28;20650;-74
2022/05/31 09:57:07;;;;;;;2.15;1.65;;;27.50;1.00;;;;;;4994078;28;20229;-73
2022/05/31 09:59:45;;;;;;;3.70;1.55;;;27.20;1.00;;;;;;4992974;28;20185;-74
2022/05/31 10:02:33;;;;;;;3.25;2.10;;;28.60;1.00;;;;;;4992408;28;20172;-73
2022/05/31 10:05:21;;;;;;;2.58;1.52;;;29.50;1.00;;;;;;4993607;28;20789;-71
2022/05/31 10:07:49;;;;;;;2.80;1.60;;;28.40;1.00;;;;;;4994023;28;20167;-74
2022/05/31 10:10:27;;;;;;;2.38;1.40;;;27.00;1.00;;;;;;4992122;28;20180;-75
2022/05/31 10:12:59;;;;;;;3.80;1.58;;;26.80;1.00;;;;;;4993853;28;20179;-75
2022/05/31 10:15:40;;;;;;;1.70;1.42;;;27.50;1.00;;;;;;4993602;28;20187;-73
2022/05/31 10:18:09;;;;;;;3.47;2.42;;;27.60;1.00;;;;;;4993169;28;20282;-72
2022/05/31 10:20:35;;;;;;;2.25;2.05;;;27.10;1.00;;;;;;4993223;28;20778;-73
2022/05/31 10:23:15;;;;;;;1.92;1.55;;;27.10;1.00;;;;;;4993886;28;20175;-73
2022/05/31 10:25:43;;;;;;;1.70;1.60;;;26.70;1.00;;;;;;4993723;28;20203;-72
2022/05/31 10:28:19;;;;;;;2.25;2.00;;;25.60;1.00;;;;;;4993558;28;20760;-70
2022/05/31 10:30:50;;;;;;;2.40;2.20;;;24.60;1.40;;;;;;4990013;28;20254;-71
2022/05/31 10:33:24;;;;;;;2.45;1.20;;;24.60;4.50;;;;;;4992802;28;20207;-71
2022/05/31 10:36:23;;;;;;;3.17;1.50;;;24.20;5.60;;;;;;4993938;28;20190;-70
2022/05/31 10:38:50;;;;;;;1.30;1.20;;;23.90;7.00;;;;;;4993720;28;20226;-73
2022/05/31 10:41:28;;;;;;;1.95;1.85;;;23.90;6.80;;;;;;4993542;28;20183;-72
2022/05/31 10:44:08;;;;;;;1.88;1.50;;;24.70;8.30;;;;;;4993553;28;20642;-73
2022/05/31 10:46:37;;;;;;;3.03;1.75;;;24.90;4.40;;;;;;4992245;28;20183;-71
2022/05/31 10:49:16;;;;;;;3.15;2.90;;;24.70;5.20;;;;;;4993205;28;20254;-73
2022/05/31 10:51:53;;;;;;;4.35;1.48;;;24.50;5.80;;;;;;4993848;28;20163;-71
2022/05/31 10:54:43;;;;;;;1.45;1.15;;;24.70;6.60;;;;;;4992822;28;20213;-71
2022/05/31 10:57:18;;;;;;;2.53;1.67;;;26.30;1.90;;;;;;4992495;28;20175;-72
2022/05/31 10:59:49;;;;;;;1.30;1.20;;;27.20;1.00;;;;;;4992227;28;20665;-73
2022/05/31 11:02:45;;;;;;;5.57;1.60;;;26.50;1.00;;;;;;4973341;28;20176;-70
2022/05/31 11:05:19;;;;;;;1.10;1.08;;;26.10;1.70;;;;;;4973879;28;20218;-71
2022/05/31 11:14:15;;;;;;;3.67;2.25;;;27.50;1.00;;;;;;4992999;28;20175;-71
2022/05/31 11:17:01;;;;;;;1.40;1.30;;;27.20;1.00;;;;;;4993035;28;20177;-71
2022/05/31 11:19:55;;;;;;;3.08;1.30;;;27.10;1.00;;;;;;4993005;28;20187;-70
2022/05/31 11:22:43;;;;;;;1.65;1.35;;;27.40;1.00;;;;;;4993166;28;20281;-73
2022/05/31 11:25:30;;;;;;;1.83;1.35;;;27.50;1.00;;;;;;4992990;28;20211;-72
2022/05/31 11:28:01;;;;;;;5.43;1.33;;;28.00;1.00;;;;;;4992850;28;20202;-70
2022/05/31 11:30:34;;;;;;;3.03;1.33;;;26.70;1.00;;;;;;4992475;28;20183;-72
2022/05/31 11:33:27;;;;;;;2.70;1.30;;;27.00;1.00;;;;;;4992528;28;20249;-70
2022/05/31 11:36:25;;;;;;;3.33;1.38;;;26.90;1.00;;;;;;4994480;28;20183;-70
2022/05/31 11:39:15;;;;;;;5.47;1.58;;;25.20;1.00;;;;;;4994795;28;20201;-72
2022/05/31 11:42:03;;;;;;;2.50;1.30;;;25.60;1.00;;;;;;4992587;28;20245;-71
2022/05/31 11:44:54;;;;;;;2.60;1.20;;;25.70;1.40;;;;;;4998598;28;20210;-69
2022/05/31 11:47:57;;;;;;;2.75;1.35;;;25.10;1.00;;;;;;4989222;28;20183;-72
2022/05/31 11:51:03;;;;;;;2.55;1.20;;;25.70;1.90;;;;;;4991692;28;20333;-71
2022/05/31 11:53:51;;;;;;;1.55;1.30;;;25.90;1.00;;;;;;4995248;28;20672;-71
2022/05/31 11:56:42;;;;;;;1.60;1.38;;;25.70;1.50;;;;;;4996233;28;20744;-72
2022/05/31 11:59:45;;;;;;;6.18;1.88;;;24.40;3.70;;;;;;4996016;28;20180;-72
2022/05/31 12:02:31;;;;;;;3.28;1.50;;;24.30;3.00;;;;;;4976377;28;20187;-72
2022/05/31 12:05:22;;;;;;;2.28;1.50;;;24.00;5.60;;;;;;4976520;28;20319;-71
2022/05/31 12:07:57;;;;;;;1.13;1.10;;;24.10;7.40;;;;;;4988003;28;20210;-68
2022/05/31 12:10:25;;;;;;;1.65;1.30;;;24.10;7.20;;;;;;4995568;28;20178;-71
2022/05/31 12:12:53;;;;;;;2.03;1.60;;;24.10;7.00;;;;;;4994765;28;20187;-70
2022/05/31 12:15:25;;;;;;;1.75;1.60;;;23.90;6.90;;;;;;4992620;28;20565;-71
2022/05/31 12:18:03;;;;;;;2.38;1.25;;;23.60;22.10;;;;;;4994889;28;20203;-70
2022/05/31 12:20:57;;;;;;;3.78;1.40;;;23.20;10.30;;;;;;4994287;28;20294;-72
2022/05/31 12:23:42;;;;;;;1.90;1.52;;;22.90;9.60;;;;;;4996148;28;20171;-70
2022/05/31 12:26:36;;;;;;;2.80;1.58;;;23.00;11.30;;;;;;4996005;28;20218;-69
2022/05/31 12:29:05;;;;;;;1.45;1.35;;;23.00;7.80;;;;;;4995846;28;20168;-68
2022/05/31 12:31:33;;;;;;;2.58;1.48;;;23.20;11.80;;;;;;4995698;28;20206;-68
2022/05/31 12:34:20;;;;;;;5.50;1.50;;;23.70;12.20;;;;;;4996185;28;20281;-68
2022/05/31 12:37:12;;;;;;;3.20;1.70;;;23.60;11.90;;;;;;4995958;28;20206;-69
2022/05/31 12:39:39;;;;;;;3.42;1.55;;;23.90;11.40;;;;;;4995602;28;20179;-69
2022/05/31 12:42:14;;;;;;;2.08;1.55;;;23.80;11.60;;;;;;4992056;28;20164;-69
2022/05/31 12:44:45;;;;;;;6.28;1.73;;;23.60;8.70;;;;;;4995034;28;20234;-69
2022/05/31 12:47:16;;;;;;;4.13;1.95;;;23.60;10.40;;;;;;4994933;28;20267;-68
2022/05/31 12:49:57;;;;;;;2.13;1.50;;;23.30;9.60;;;;;;4995117;28;20665;-69
2022/05/31 12:55:23;;;;;;;1.80;1.70;;;23.10;13.90;;;;;;4993048;28;20175;-68
2022/05/31 13:00:51;;;;;;;4.80;2.00;;;22.30;16.40;;;;;;4992840;28;20250;-69
2022/05/31 13:03:34;;;;;;;4.45;1.60;;;22.30;19.40;;;;;;4994320;28;20630;-68
2022/05/31 13:06:37;;;;;;;2.92;1.67;;;22.50;20.10;;;;;;4995330;28;20242;-69
2022/05/31 13:09:10;;;;;;;2.75;2.33;;;22.20;20.10;;;;;;4995446;28;20190;-69
2022/05/31 13:20:11;;;;;;;4.32;1.60;;;22.10;28.80;;;;;;4994931;28;20303;-69
2022/05/31 13:22:41;;;;;;;3.85;1.58;;;22.30;28.50;;;;;;4995139;28;20193;-67
2022/05/31 13:25:22;;;;;;;8.73;1.35;;;22.50;29.10;;;;;;4994484;28;20585;-69
2022/05/31 13:27:53;;;;;;;3.15;1.23;;;22.80;28.00;;;;;;4994712;28;20184;-68
2022/05/31 13:30:22;;;;;;;2.55;1.10;;;22.70;27.60;;;;;;4994345;28;20179;-69
2022/05/31 13:32:48;;;;;;;1.10;1.10;;;22.70;27.80;;;;;;4994826;28;20178;-69
2022/05/31 13:35:25;;;;;;;0.90;0.90;;;23.10;25.10;;;;;;4995230;28;20182;-69
2022/05/31 13:37:57;;;;;;;2.03;1.10;;;23.20;24.40;;;;;;4994840;28;20171;-70
2022/05/31 13:40:35;;;;;;;1.25;1.00;;;23.40;22.20;;;;;;4994398;28;20635;-68
2022/05/31 13:43:03;;;;;;;0.90;0.90;;;23.00;21.90;;;;;;4994389;28;20638;-68
2022/05/31 13:45:30;;;;;;;2.95;1.63;;;23.10;21.70;;;;;;4994686;28;20673;-68
2022/05/31 13:48:07;;;;;;;3.55;1.20;;;23.10;19.60;;;;;;4994416;28;20175;-68
2022/05/31 13:50:54;;;;;;;1.80;1.10;;;23.30;19.90;;;;;;4992755;28;20175;-68
2022/05/31 13:53:21;;;;;;;2.20;1.40;;;23.20;19.50;;;;;;4992874;28;20534;-69
2022/05/31 13:55:57;;;;;;;1.25;1.20;;;23.00;18.60;;;;;;4992957;28;20556;-69